createdAt,value
2016-10-25T00:00:10.632Z,999.19
2016-10-25T00:01:20.921Z,999.23
2016-10-25T00:02:31.247Z,999.24
2016-10-25T00:03:41.581Z,999.21
2016-10-25T00:04:51.875Z,999.18
2016-10-25T00:06:02.079Z,999.23
2016-10-25T00:07:12.372Z,999.19
2016-10-25T00:08:22.669Z,999.19
2016-10-25T00:09:32.950Z,999.2
2016-10-25T00:10:43.292Z,999.22
2016-10-25T00:11:53.596Z,999.23
2016-10-25T00:13:03.586Z,999.23
2016-10-25T00:14:13.876Z,999.23
2016-10-25T00:15:23.556Z,999.24
2016-10-25T00:16:33.530Z,999.21
2016-10-25T00:17:43.503Z,999.18
2016-10-25T00:18:53.489Z,999.17
2016-10-25T00:20:03.509Z,999.21
2016-10-25T00:21:13.807Z,999.25
2016-10-25T00:22:23.486Z,999.24
2016-10-25T00:23:33.467Z,999.24
2016-10-25T00:24:43.761Z,999.22
2016-10-25T00:25:53.740Z,999.16
2016-10-25T00:27:04.047Z,999.16
2016-10-25T00:28:14.048Z,999.15
2016-10-25T00:29:24.020Z,999.1
2016-10-25T00:30:34.556Z,999.12
2016-10-25T00:31:44.834Z,999.04
2016-10-25T00:32:54.519Z,999.07
2016-10-25T00:34:04.831Z,999.12
2016-10-25T00:35:15.125Z,999.1
2016-10-25T00:36:25.428Z,999.08
2016-10-25T00:37:34.806Z,999.06
2016-10-25T00:38:45.103Z,999.04
2016-10-25T00:39:54.815Z,999.02
2016-10-25T00:41:05.135Z,999.01
2016-10-25T00:42:15.413Z,999.04
2016-10-25T00:43:25.395Z,999.01
2016-10-25T00:44:35.059Z,998.95
2016-10-25T00:45:45.358Z,998.94
2016-10-25T00:46:55.664Z,998.93
2016-10-25T00:48:05.343Z,998.91
2016-10-25T00:49:15.634Z,998.92
2016-10-25T00:50:25.611Z,998.89
2016-10-25T00:51:35.610Z,998.91
2016-10-25T00:52:45.278Z,998.87
2016-10-25T00:53:55.261Z,998.82
2016-10-25T00:55:05.252Z,998.75
2016-10-25T00:56:15.549Z,998.75
2016-10-25T00:57:25.522Z,998.73
2016-10-25T00:58:35.822Z,998.74
2016-10-25T00:59:46.100Z,998.75
2016-10-25T01:00:56.391Z,998.8
2016-10-25T01:02:06.678Z,998.76
2016-10-25T01:03:16.700Z,998.69
2016-10-25T01:04:27.007Z,998.67
2016-10-25T01:05:36.672Z,998.69
2016-10-25T01:06:46.347Z,998.72
2016-10-25T01:07:56.634Z,998.72
2016-10-25T01:09:06.612Z,998.78
2016-10-25T01:10:16.913Z,998.79
2016-10-25T01:11:26.901Z,998.8
2016-10-25T01:12:36.893Z,998.77
2016-10-25T01:13:46.874Z,998.78
2016-10-25T01:14:56.540Z,998.76
2016-10-25T01:16:06.504Z,998.75
2016-10-25T01:17:16.478Z,998.69
2016-10-25T01:18:26.165Z,998.68
2016-10-25T01:19:36.447Z,998.63
2016-10-25T01:20:46.505Z,998.57
2016-10-25T01:21:56.487Z,998.58
2016-10-25T01:23:06.477Z,998.55
2016-10-25T01:24:16.790Z,998.51
2016-10-25T01:25:26.826Z,998.47
2016-10-25T01:26:37.112Z,998.44
2016-10-25T01:27:47.095Z,998.46
2016-10-25T01:28:57.406Z,998.42
2016-10-25T01:30:07.066Z,998.45
2016-10-25T01:31:16.748Z,998.44
2016-10-25T01:32:26.111Z,998.43
2016-10-25T01:33:36.412Z,998.41
2016-10-25T01:34:46.704Z,998.41
2016-10-25T01:35:56.998Z,998.45
2016-10-25T01:37:07.301Z,998.47
2016-10-25T01:38:17.593Z,998.45
2016-10-25T01:39:27.310Z,998.52
2016-10-25T01:40:37.298Z,998.51
2016-10-25T01:41:47.285Z,998.5
2016-10-25T01:42:56.946Z,998.56
2016-10-25T01:44:07.229Z,998.56
2016-10-25T01:45:17.229Z,998.56
2016-10-25T01:46:27.521Z,998.63
2016-10-25T01:47:37.807Z,998.63
2016-10-25T01:48:48.094Z,998.63
2016-10-25T01:49:58.366Z,998.61
2016-10-25T01:51:07.780Z,998.62
2016-10-25T01:52:18.065Z,998.67
2016-10-25T01:53:28.356Z,998.66
2016-10-25T01:54:38.647Z,998.68
2016-10-25T01:55:48.613Z,998.68
2016-10-25T01:56:58.897Z,998.67
2016-10-25T01:58:09.208Z,998.69
2016-10-25T01:59:19.499Z,998.63
2016-10-25T02:00:29.478Z,998.61
2016-10-25T02:01:39.464Z,998.64
2016-10-25T02:02:49.464Z,998.63
2016-10-25T02:03:59.750Z,998.65
2016-10-25T02:05:10.037Z,998.63
2016-10-25T02:06:20.028Z,998.67
2016-10-25T02:07:30.330Z,998.59
2016-10-25T02:08:40.624Z,998.6
2016-10-25T02:09:50.304Z,998.59
2016-10-25T02:11:00.005Z,998.57
2016-10-25T02:12:09.683Z,998.58
2016-10-25T02:13:20.010Z,998.63
2016-10-25T02:14:29.996Z,998.67
2016-10-25T02:15:39.684Z,998.64
2016-10-25T02:16:49.667Z,998.63
2016-10-25T02:17:59.650Z,998.69
2016-10-25T02:19:09.353Z,998.74
2016-10-25T02:20:18.706Z,998.78
2016-10-25T02:21:28.691Z,998.76
2016-10-25T02:22:38.369Z,998.74
2016-10-25T02:23:48.655Z,998.75
2016-10-25T02:24:58.941Z,998.76
2016-10-25T02:26:08.922Z,998.75
2016-10-25T02:27:19.259Z,998.74
2016-10-25T02:28:29.545Z,998.77
2016-10-25T02:29:39.848Z,998.73
2016-10-25T02:30:49.821Z,998.77
2016-10-25T02:32:00.122Z,998.74
2016-10-25T02:33:09.493Z,998.72
2016-10-25T02:34:19.769Z,998.71
2016-10-25T02:35:30.053Z,998.71
2016-10-25T02:36:40.339Z,998.77
2016-10-25T02:37:50.618Z,998.76
2016-10-25T02:39:00.647Z,998.76
2016-10-25T02:40:10.938Z,998.78
2016-10-25T02:41:20.908Z,998.78
2016-10-25T02:42:31.193Z,998.75
2016-10-25T02:43:41.478Z,998.65
2016-10-25T02:44:51.191Z,998.65
2016-10-25T02:46:01.496Z,998.6
2016-10-25T02:47:11.793Z,998.54
2016-10-25T02:48:21.770Z,998.57
2016-10-25T02:49:32.081Z,998.52
2016-10-25T02:50:42.371Z,998.48
2016-10-25T02:51:52.652Z,998.48
2016-10-25T02:53:02.633Z,998.49
2016-10-25T02:54:12.925Z,998.48
2016-10-25T02:55:23.279Z,998.44
2016-10-25T02:56:33.248Z,998.41
2016-10-25T02:57:43.562Z,998.4
2016-10-25T02:58:53.224Z,998.39
2016-10-25T03:00:03.246Z,998.36
2016-10-25T03:01:13.232Z,998.36
2016-10-25T03:32:41.877Z,998.75
2016-10-25T03:33:52.162Z,998.76
2016-10-25T03:35:02.429Z,998.79
2016-10-25T03:36:12.401Z,998.74
2016-10-25T03:37:22.419Z,998.72
2016-10-25T03:38:32.394Z,998.65
2016-10-25T03:39:42.395Z,998.64
2016-10-25T03:40:52.369Z,998.63
2016-10-25T03:42:02.644Z,998.67
2016-10-25T03:43:12.610Z,998.73
2016-10-25T03:44:22.589Z,998.77
2016-10-25T03:45:32.890Z,998.83
2016-10-25T03:46:42.562Z,998.89
2016-10-25T03:47:52.233Z,998.93
2016-10-25T03:49:02.565Z,998.95
2016-10-25T03:50:12.240Z,998.97
2016-10-25T03:51:22.528Z,998.97
2016-10-25T03:52:32.533Z,999.02
2016-10-25T03:53:42.518Z,999.02
2016-10-25T03:54:52.232Z,999.02
2016-10-25T03:56:01.946Z,999.07
2016-10-25T03:57:12.239Z,999.08
2016-10-25T03:58:22.532Z,999.09
2016-10-25T03:59:32.189Z,999.1
2016-10-25T04:00:42.161Z,999.08
2016-10-25T04:01:52.142Z,999.08
2016-10-25T04:03:02.124Z,999.02
2016-10-25T04:04:12.097Z,999.06
2016-10-25T04:05:22.373Z,999
2016-10-25T04:06:32.714Z,999
2016-10-25T04:07:42.692Z,999.07
2016-10-25T04:08:52.367Z,999.06
2016-10-25T04:10:02.689Z,999.07
2016-10-25T04:11:12.668Z,999.1
2016-10-25T04:12:22.973Z,999.17
2016-10-25T04:13:33.271Z,999.17
2016-10-25T04:14:43.606Z,999.19
2016-10-25T04:15:53.639Z,999.15
2016-10-25T04:17:03.915Z,999.19
2016-10-25T04:18:14.215Z,999.15
2016-10-25T04:19:24.523Z,999.15
2016-10-25T04:20:34.810Z,999.14
2016-10-25T04:21:44.787Z,999.16
2016-10-25T04:22:55.074Z,999.21
2016-10-25T04:24:04.736Z,999.18
2016-10-25T04:25:15.020Z,999.25
2016-10-25T04:26:25.323Z,999.22
2016-10-25T04:27:35.606Z,999.22
2016-10-25T04:28:45.277Z,999.18
2016-10-25T04:29:55.290Z,999.19
2016-10-25T04:31:04.966Z,999.19
2016-10-25T04:32:15.262Z,999.17
2016-10-25T04:33:25.254Z,999.21
2016-10-25T04:34:35.253Z,999.14
2016-10-25T04:35:45.538Z,999.12
2016-10-25T04:36:55.823Z,999.12
2016-10-25T04:38:06.115Z,999.15
2016-10-25T04:39:16.399Z,999.09
2016-10-25T04:40:26.085Z,999.11
2016-10-25T04:41:36.091Z,999.12
2016-10-25T04:42:46.072Z,999.07
2016-10-25T04:43:56.395Z,999.15
2016-10-25T04:45:06.695Z,999.14
2016-10-25T04:46:16.677Z,999.12
2016-10-25T04:47:26.974Z,999.16
2016-10-25T04:48:36.340Z,999.13
2016-10-25T04:49:46.652Z,999.2
2016-10-25T04:50:56.656Z,999.2
2016-10-25T04:52:06.636Z,999.21
2016-10-25T04:53:16.008Z,999.2
2016-10-25T04:54:26.008Z,999.18
2016-10-25T04:55:36.282Z,999.17
2016-10-25T04:56:45.963Z,999.15
2016-10-25T04:57:55.641Z,999.15
2016-10-25T04:59:05.303Z,999.15
2016-10-25T05:00:15.280Z,999.11
2016-10-25T05:01:25.270Z,999.06
2016-10-25T05:02:35.562Z,999.02
2016-10-25T05:03:45.853Z,998.98
2016-10-25T05:04:56.140Z,999.01
2016-10-25T05:06:05.502Z,999.04
2016-10-25T05:07:15.788Z,999.09
2016-10-25T05:08:25.846Z,999.1
2016-10-25T05:09:35.832Z,999.11
2016-10-25T05:10:46.138Z,999.12
2016-10-25T05:11:56.124Z,999.13
2016-10-25T05:13:06.408Z,999.2
2016-10-25T05:14:16.725Z,999.21
2016-10-25T05:15:27.011Z,999.24
2016-10-25T05:16:36.365Z,999.29
2016-10-25T05:17:46.678Z,999.27
2016-10-25T05:18:56.981Z,999.26
2016-10-25T05:20:07.266Z,999.29
2016-10-25T05:21:17.569Z,999.31
2016-10-25T05:22:27.595Z,999.31
2016-10-25T05:23:37.273Z,999.39
2016-10-25T05:24:47.579Z,999.49
2016-10-25T05:25:57.870Z,999.61
2016-10-25T05:27:08.157Z,999.68
2016-10-25T05:28:18.468Z,999.73
2016-10-25T05:29:28.451Z,999.82
2016-10-25T05:30:38.121Z,999.85
2016-10-25T05:31:48.109Z,999.91
2016-10-25T05:32:58.092Z,999.89
2016-10-25T05:34:08.052Z,999.9
2016-10-25T05:35:18.031Z,999.88
2016-10-25T05:36:28.302Z,999.87
2016-10-25T05:37:38.577Z,999.87
2016-10-25T05:38:48.869Z,999.87
2016-10-25T05:39:59.156Z,999.94
2016-10-25T05:41:08.884Z,999.98
2016-10-25T05:42:18.242Z,1000.05
2016-10-25T05:43:28.524Z,1000.08
2016-10-25T05:44:38.203Z,1000.14
2016-10-25T05:45:47.595Z,1000.15
2016-10-25T05:46:57.888Z,1000.24
2016-10-25T05:48:08.177Z,1000.31
2016-10-25T05:49:18.465Z,1000.3
2016-10-25T05:50:28.766Z,1000.31
2016-10-25T05:51:38.760Z,1000.27
2016-10-25T05:52:48.755Z,1000.2
2016-10-25T05:53:59.052Z,1000.24
2016-10-25T05:55:09.327Z,1000.32
2016-10-25T05:56:19.620Z,1000.38
2016-10-25T05:57:29.941Z,1000.54
2016-10-25T05:58:40.224Z,1000.55
2016-10-25T05:59:50.504Z,1000.59
2016-10-25T06:01:00.787Z,1000.56
2016-10-25T06:02:11.066Z,1000.49
2016-10-25T06:03:21.053Z,1000.45
2016-10-25T06:04:31.026Z,1000.42
2016-10-25T06:05:41.312Z,1000.38
2016-10-25T06:06:51.604Z,1000.38
2016-10-25T06:08:01.922Z,1000.38
2016-10-25T06:09:12.211Z,1000.4
2016-10-25T06:10:22.229Z,1000.48
2016-10-25T06:11:31.891Z,1000.53
2016-10-25T06:12:41.553Z,1000.55
2016-10-25T06:13:51.839Z,1000.62
2016-10-25T06:15:01.812Z,1000.75
2016-10-25T06:16:11.779Z,1000.85
2016-10-25T06:17:21.759Z,1000.89
2016-10-25T06:18:32.037Z,1000.94
2016-10-25T06:19:41.699Z,1000.97
2016-10-25T06:20:51.672Z,1001.03
2016-10-25T06:22:01.655Z,1001.02
2016-10-25T06:23:11.637Z,1001
2016-10-25T06:24:21.928Z,1000.97
2016-10-25T06:25:32.217Z,1000.94
2016-10-25T06:26:42.206Z,1000.96
2016-10-25T06:27:52.175Z,1000.98
2016-10-25T06:29:02.458Z,1001.08
2016-10-25T06:30:12.748Z,1001.2
2016-10-25T06:31:22.726Z,1001.24
2016-10-25T06:32:32.091Z,1001.37
2016-10-25T06:33:42.369Z,1001.41
2016-10-25T06:34:52.661Z,1001.51
2016-10-25T06:36:02.944Z,1001.57
2016-10-25T06:37:12.314Z,1001.54
2016-10-25T06:38:22.604Z,1001.57
2016-10-25T06:39:32.272Z,1001.58
2016-10-25T06:40:41.951Z,1001.61
2016-10-25T06:41:51.936Z,1001.61
2016-10-25T06:43:01.912Z,1001.61
2016-10-25T06:44:11.596Z,1001.64
2016-10-25T06:45:21.264Z,1001.65
2016-10-25T06:46:30.987Z,1001.73
2016-10-25T06:47:40.663Z,1001.79
2016-10-25T06:48:50.658Z,1001.79
2016-10-25T06:50:00.337Z,1001.8
2016-10-25T06:51:10.340Z,1001.82
2016-10-25T06:52:20.317Z,1001.82
2016-10-25T06:53:30.313Z,1001.91
2016-10-25T06:54:40.286Z,1002
2016-10-25T06:55:50.961Z,1002.02
2016-10-25T06:57:00.973Z,1002.03
2016-10-25T06:58:10.955Z,1002.08
2016-10-25T06:59:20.937Z,1002.07
2016-10-25T07:00:31.273Z,1002.07
2016-10-25T07:01:41.551Z,1002
2016-10-25T07:02:51.842Z,1001.94
2016-10-25T07:04:02.133Z,1001.91
2016-10-25T07:05:12.116Z,1001.87
2016-10-25T07:06:22.087Z,1001.93
2016-10-25T07:07:31.748Z,1001.97
2016-10-25T07:08:41.454Z,1001.96
2016-10-25T07:09:51.766Z,1001.94
2016-10-25T07:11:02.051Z,1001.97
2016-10-25T07:12:12.048Z,1002
2016-10-25T07:13:21.715Z,1002.04
2016-10-25T07:14:32.015Z,1002.06
2016-10-25T07:15:42.335Z,1002.03
2016-10-25T07:16:52.629Z,1002.07
2016-10-25T07:18:02.683Z,1002.13
2016-10-25T07:19:12.665Z,1002.17
2016-10-25T07:20:22.965Z,1002.3
2016-10-25T07:21:33.305Z,1002.34
2016-10-25T07:22:43.611Z,1002.36
2016-10-25T07:23:53.888Z,1002.39
2016-10-25T07:25:04.179Z,1002.34
2016-10-25T07:26:14.162Z,1002.36
2016-10-25T07:27:23.842Z,1002.32
2016-10-25T07:28:34.140Z,1002.25
2016-10-25T07:29:44.121Z,1002.31
2016-10-25T07:30:54.404Z,1002.34
2016-10-25T07:32:04.404Z,1002.35
2016-10-25T07:33:14.068Z,1002.48
2016-10-25T07:34:24.359Z,1002.6
2016-10-25T07:35:34.646Z,1002.69
2016-10-25T07:36:44.636Z,1002.71
2016-10-25T07:37:54.617Z,1002.77
2016-10-25T07:39:04.600Z,1002.73
2016-10-25T07:40:14.885Z,1002.67
2016-10-25T07:41:24.255Z,1002.75
2016-10-25T07:42:33.927Z,1002.78
2016-10-25T07:43:44.242Z,1002.88
2016-10-25T07:44:54.529Z,1002.95
2016-10-25T07:46:04.824Z,1003.05
2016-10-25T07:47:14.807Z,1003.09
2016-10-25T07:48:25.105Z,1003.08
2016-10-25T07:49:35.394Z,1003.17
2016-10-25T07:50:45.076Z,1003.15
2016-10-25T07:51:54.738Z,1003.19
2016-10-25T07:53:04.425Z,1003.11
2016-10-25T07:54:14.736Z,1003.14
2016-10-25T07:55:24.717Z,1003.14
2016-10-25T07:56:35.005Z,1003.11
2016-10-25T07:57:45.299Z,1003.1
2016-10-25T07:58:55.603Z,1003.05
2016-10-25T08:00:05.582Z,1003.01
2016-10-25T08:01:15.562Z,1003.03
2016-10-25T08:02:25.524Z,1003.02
2016-10-25T08:03:35.511Z,1003.06
2016-10-25T08:04:45.844Z,1003
2016-10-25T08:05:56.133Z,1002.97
2016-10-25T08:07:06.473Z,1002.96
2016-10-25T08:08:16.767Z,1002.96
2016-10-25T08:09:27.056Z,1003.01
2016-10-25T08:10:37.356Z,1003.05
2016-10-25T08:11:47.348Z,1003.03
2016-10-25T08:12:57.326Z,1003.08
2016-10-25T08:14:07.601Z,1003.17
2016-10-25T08:15:17.919Z,1003.2
2016-10-25T08:16:28.184Z,1003.26
2016-10-25T08:17:38.541Z,1003.29
2016-10-25T08:18:47.977Z,1003.3
2016-10-25T08:19:58.264Z,1003.26
2016-10-25T08:21:08.556Z,1003.29
2016-10-25T08:22:18.542Z,1003.28
2016-10-25T08:23:28.524Z,1003.23
2016-10-25T08:24:38.515Z,1003.2
2016-10-25T08:25:48.812Z,1003.17
2016-10-25T08:26:59.099Z,1003.2
2016-10-25T08:28:09.379Z,1003.22
2016-10-25T08:29:19.377Z,1003.23
2016-10-25T08:30:29.659Z,1003.27
2016-10-25T08:31:39.636Z,1003.24
2016-10-25T08:32:49.342Z,1003.3
2016-10-25T08:33:59.643Z,1003.4
2016-10-25T08:35:09.631Z,1003.41
2016-10-25T08:36:19.922Z,1003.46
2016-10-25T08:37:29.914Z,1003.49
2016-10-25T08:38:39.896Z,1003.53
2016-10-25T08:39:50.183Z,1003.56
2016-10-25T08:41:00.470Z,1003.56
2016-10-25T08:42:10.145Z,1003.57
2016-10-25T08:43:19.813Z,1003.56
2016-10-25T08:44:30.109Z,1003.56
2016-10-25T08:45:40.091Z,1003.65
2016-10-25T08:46:50.083Z,1003.64
2016-10-25T08:48:00.066Z,1003.64
2016-10-25T08:49:10.072Z,1003.62
2016-10-25T08:50:20.083Z,1003.64
2016-10-25T08:51:30.395Z,1003.63
2016-10-25T08:52:40.692Z,1003.57
2016-10-25T08:53:51.038Z,1003.6
2016-10-25T08:55:01.021Z,1003.62
2016-10-25T08:56:11.327Z,1003.69
2016-10-25T08:57:21.624Z,1003.77
2016-10-25T08:58:31.614Z,1003.75
2016-10-25T08:59:41.918Z,1003.75
2016-10-25T09:00:51.583Z,1003.77
2016-10-25T09:02:01.576Z,1003.88
2016-10-25T09:03:11.866Z,1003.92
2016-10-25T09:04:21.848Z,1003.97
2016-10-25T09:05:31.520Z,1003.98
2016-10-25T09:06:41.503Z,1003.94
2016-10-25T09:07:51.493Z,1004.09
2016-10-25T09:09:01.166Z,1004.13
2016-10-25T09:10:11.167Z,1004.25
2016-10-25T09:11:20.873Z,1004.27
2016-10-25T09:12:30.862Z,1004.29
2016-10-25T09:13:41.177Z,1004.21
2016-10-25T09:14:51.174Z,1004.26
2016-10-25T09:16:01.468Z,1004.19
2016-10-25T09:17:11.787Z,1004.19
2016-10-25T09:18:21.157Z,1004.13
2016-10-25T09:19:30.841Z,1004.16
2016-10-25T09:20:40.866Z,1004.16
2016-10-25T09:21:50.538Z,1004.16
2016-10-25T09:23:00.830Z,1004.18
2016-10-25T09:24:10.815Z,1004.24
2016-10-25T09:25:21.113Z,1004.24
2016-10-25T09:26:31.419Z,1004.21
2016-10-25T09:27:41.712Z,1004.21
2016-10-25T09:28:52.014Z,1004.12
2016-10-25T09:30:01.690Z,1004.1
2016-10-25T09:31:11.367Z,1004.11
2016-10-25T09:32:21.684Z,1004.21
2016-10-25T09:33:31.707Z,1004.15
2016-10-25T09:34:41.388Z,1004.09
2016-10-25T09:35:51.368Z,1004.12
2016-10-25T09:37:01.642Z,1004.09
2016-10-25T09:38:11.324Z,1004.05
2016-10-25T09:39:21.020Z,1004.04
2016-10-25T09:40:31.333Z,1004.04
2016-10-25T09:41:41.334Z,1004.04
2016-10-25T09:42:51.323Z,1004
2016-10-25T09:44:01.656Z,1003.97
2016-10-25T09:45:11.957Z,1003.96
2016-10-25T09:46:22.922Z,1004
2016-10-25T09:47:37.486Z,1004.03
2016-10-25T09:48:50.894Z,1004.07
2016-10-25T09:50:08.237Z,1004.02
2016-10-25T09:51:24.021Z,1003.97
2016-10-25T09:52:35.612Z,1003.99
2016-10-25T09:53:45.635Z,1003.92
2016-10-25T09:54:55.321Z,1003.88
2016-10-25T09:56:05.646Z,1003.86
2016-10-25T09:57:15.637Z,1003.83
2016-10-25T09:58:25.956Z,1003.84
2016-10-25T09:59:36.323Z,1003.76
2016-10-25T10:00:46.331Z,1003.73
2016-10-25T10:01:56.312Z,1003.78
2016-10-25T10:03:06.635Z,1003.76
2016-10-25T10:04:16.949Z,1003.76
2016-10-25T10:05:27.253Z,1003.75
2016-10-25T10:06:37.554Z,1003.74
2016-10-25T10:07:47.876Z,1003.68
2016-10-25T10:08:58.182Z,1003.71
2016-10-25T10:10:07.566Z,1003.71
2016-10-25T10:11:17.577Z,1003.62
2016-10-25T10:12:27.872Z,1003.58
2016-10-25T10:13:37.862Z,1003.59
2016-10-25T10:14:48.172Z,1003.64
2016-10-25T10:15:58.467Z,1003.62
2016-10-25T10:17:08.501Z,1003.62
2016-10-25T10:18:18.809Z,1003.55
2016-10-25T10:19:28.817Z,1003.48
2016-10-25T10:20:39.126Z,1003.4
2016-10-25T10:21:49.445Z,1003.4
2016-10-25T10:22:59.426Z,1003.32
2016-10-25T10:24:09.748Z,1003.27
2016-10-25T10:25:20.058Z,1003.17
2016-10-25T10:26:30.052Z,1003.15
2016-10-25T10:27:39.768Z,1003.15
2016-10-25T10:28:50.113Z,1003.17
2016-10-25T10:30:00.422Z,1003.17
2016-10-25T10:31:10.410Z,1003.16
2016-10-25T10:32:20.420Z,1003.18
2016-10-25T10:33:30.732Z,1003.18
2016-10-25T10:34:41.049Z,1003.19
2016-10-25T10:35:51.050Z,1003.21
2016-10-25T10:37:01.373Z,1003.15
2016-10-25T10:39:35.966Z,1002.96
2016-10-25T10:40:45.958Z,1002.9
2016-10-25T10:41:56.249Z,1002.85
2016-10-25T10:43:06.569Z,1002.84
2016-10-25T10:44:16.891Z,1002.82
2016-10-25T10:45:26.879Z,1002.85
2016-10-25T10:46:36.915Z,1002.76
2016-10-25T10:47:47.217Z,1002.76
2016-10-25T10:48:56.888Z,1002.7
2016-10-25T10:50:06.909Z,1002.82
2016-10-25T10:51:16.299Z,1002.96
2016-10-25T10:52:26.024Z,1003.03
2016-10-25T10:53:35.707Z,1003.07
2016-10-25T10:54:45.712Z,1003.05
2016-10-25T10:55:55.435Z,1003.11
2016-10-25T10:57:05.146Z,1003.06
2016-10-25T10:58:15.457Z,1002.97
2016-10-25T10:59:25.148Z,1002.9
2016-10-25T11:00:35.485Z,1002.9
2016-10-25T11:01:45.766Z,1002.85
2016-10-25T11:02:56.074Z,1002.88
2016-10-25T11:04:06.057Z,1002.9
2016-10-25T11:05:16.368Z,1002.9
2016-10-25T11:06:26.894Z,1002.87
2016-10-25T11:07:36.887Z,1002.9
2016-10-25T11:08:47.190Z,1002.83
2016-10-25T11:09:57.496Z,1002.71
2016-10-25T11:11:07.815Z,1002.72
2016-10-25T11:12:17.801Z,1002.81
2016-10-25T11:13:28.106Z,1002.81
2016-10-25T11:14:38.422Z,1002.8
2016-10-25T11:15:48.458Z,1002.75
2016-10-25T11:16:57.543Z,1002.75
2016-10-25T11:18:07.855Z,1002.77
2016-10-25T11:19:17.553Z,1002.81
2016-10-25T11:20:27.539Z,1002.81
2016-10-25T11:21:37.226Z,1002.78
2016-10-25T11:22:46.898Z,1002.83
2016-10-25T11:23:56.895Z,1002.84
2016-10-25T11:25:07.180Z,1002.9
2016-10-25T11:26:16.852Z,1002.9
2016-10-25T11:27:26.831Z,1002.93
2016-10-25T11:28:37.128Z,1002.9
2016-10-25T11:29:47.416Z,1002.88
2016-10-25T11:30:57.409Z,1002.95
2016-10-25T11:32:07.396Z,1002.97
2016-10-25T11:33:17.698Z,1002.97
2016-10-25T11:34:27.689Z,1003
2016-10-25T11:35:37.369Z,1003.03
2016-10-25T11:36:47.663Z,1003.08
2016-10-25T11:37:57.964Z,1003.1
2016-10-25T11:39:08.271Z,1003.07
2016-10-25T11:40:18.562Z,1003.04
2016-10-25T11:41:28.870Z,1003.11
2016-10-25T11:42:38.857Z,1003.03
2016-10-25T11:43:49.151Z,1003.11
2016-10-25T11:44:59.135Z,1003.09
2016-10-25T11:46:09.442Z,1003.11
2016-10-25T11:47:19.739Z,1003.1
2016-10-25T11:48:30.049Z,1003.07
2016-10-25T11:49:40.345Z,1003.05
2016-10-25T11:50:50.353Z,1003.09
2016-10-25T11:52:00.645Z,1003.14
2016-10-25T11:53:10.646Z,1003.14
2016-10-25T11:54:20.047Z,1003.14
2016-10-25T11:55:30.337Z,1003.04
2016-10-25T11:56:40.631Z,1003.06
2016-10-25T11:57:50.318Z,1002.98
2016-10-25T11:59:00.291Z,1002.95
2016-10-25T12:00:10.578Z,1002.92
2016-10-25T12:01:20.574Z,1002.96
2016-10-25T12:02:30.896Z,1002.96
2016-10-25T12:03:40.916Z,1002.94
2016-10-25T12:04:50.618Z,1002.94
2016-10-25T12:06:00.950Z,1002.9
2016-10-25T12:07:11.317Z,1002.92
2016-10-25T12:08:21.299Z,1002.87
2016-10-25T12:09:31.604Z,1002.87
2016-10-25T12:10:41.631Z,1002.91
2016-10-25T12:11:51.993Z,1002.91
2016-10-25T12:13:02.318Z,1002.87
2016-10-25T12:14:12.660Z,1002.89
2016-10-25T12:15:23.002Z,1002.88
2016-10-25T12:16:33.036Z,1002.89
2016-10-25T12:17:43.318Z,1002.87
2016-10-25T12:18:53.681Z,1002.9
2016-10-25T12:20:03.731Z,1002.89
2016-10-25T12:21:14.085Z,1002.85
2016-10-25T12:22:24.522Z,1002.89
2016-10-25T12:23:34.867Z,1002.86
2016-10-25T12:24:45.201Z,1002.87
2016-10-25T12:25:55.231Z,1002.85
2016-10-25T12:27:05.272Z,1002.82
2016-10-25T12:28:15.614Z,1002.76
2016-10-25T12:29:25.637Z,1002.77
2016-10-25T12:30:35.342Z,1002.8
2016-10-25T12:31:45.672Z,1002.8
2016-10-25T12:32:55.993Z,1002.83
2016-10-25T12:34:06.045Z,1002.83
2016-10-25T12:35:16.434Z,1002.84
2016-10-25T12:36:26.444Z,1002.78
2016-10-25T12:37:35.885Z,1002.78
2016-10-25T12:38:44.966Z,1002.78
2016-10-25T12:39:54.656Z,1002.75
2016-10-25T12:41:05.020Z,1002.77
2016-10-25T12:42:15.024Z,1002.72
2016-10-25T12:43:25.058Z,1002.72
2016-10-25T12:44:35.363Z,1002.72
2016-10-25T12:45:45.664Z,1002.64
2016-10-25T12:46:55.722Z,1002.69
2016-10-25T12:48:05.423Z,1002.65
2016-10-25T12:49:15.727Z,1002.66
2016-10-25T12:50:25.735Z,1002.66
2016-10-25T12:51:36.060Z,1002.67
2016-10-25T12:52:46.368Z,1002.65
2016-10-25T12:53:56.667Z,1002.68
2016-10-25T12:55:06.698Z,1002.68
2016-10-25T12:56:16.418Z,1002.68
2016-10-25T12:57:26.407Z,1002.67
2016-10-25T12:58:36.750Z,1002.62
2016-10-25T12:59:47.052Z,1002.59
2016-10-25T13:00:57.088Z,1002.59
2016-10-25T13:02:07.507Z,1002.57
2016-10-25T13:03:17.839Z,1002.54
2016-10-25T13:04:28.147Z,1002.53
2016-10-25T13:05:38.180Z,1002.54
2016-10-25T13:06:48.427Z,1002.55
2016-10-25T13:07:58.746Z,1002.53
2016-10-25T13:09:09.044Z,1002.53
2016-10-25T13:10:19.377Z,1002.56
2016-10-25T13:11:29.688Z,1002.58
2016-10-25T13:12:39.375Z,1002.6
2016-10-25T13:13:49.727Z,1002.6
2016-10-25T13:14:59.717Z,1002.63
2016-10-25T13:16:10.036Z,1002.56
2016-10-25T13:17:20.348Z,1002.61
2016-10-25T13:18:30.667Z,1002.64
2016-10-25T13:19:40.656Z,1002.66
2016-10-25T13:20:50.973Z,1002.65
2016-10-25T13:22:01.291Z,1002.66
2016-10-25T13:23:11.334Z,1002.67
2016-10-25T13:24:21.335Z,1002.65
2016-10-25T13:25:31.721Z,1002.67
2016-10-25T13:26:42.027Z,1002.66
2016-10-25T13:27:51.734Z,1002.65
2016-10-25T13:29:01.724Z,1002.64
2016-10-25T13:30:12.040Z,1002.63
2016-10-25T13:31:22.059Z,1002.67
2016-10-25T13:32:32.055Z,1002.77
2016-10-25T13:33:42.062Z,1002.73
2016-10-25T13:34:51.750Z,1002.76
2016-10-25T13:36:02.079Z,1002.74
2016-10-25T13:37:12.078Z,1002.75
2016-10-25T13:38:22.390Z,1002.7
2016-10-25T13:39:32.718Z,1002.72
2016-10-25T13:40:42.729Z,1002.72
2016-10-25T13:41:52.739Z,1002.75
2016-10-25T13:43:02.431Z,1002.77
2016-10-25T13:44:12.739Z,1002.75
2016-10-25T13:45:22.740Z,1002.77
2016-10-25T13:46:33.036Z,1002.74
2016-10-25T13:47:43.062Z,1002.72
2016-10-25T13:48:53.075Z,1002.74
2016-10-25T13:50:03.072Z,1002.72
2016-10-25T13:51:13.071Z,1002.76
2016-10-25T13:52:23.062Z,1002.71
2016-10-25T13:53:32.766Z,1002.73
2016-10-25T13:54:43.068Z,1002.75
2016-10-25T13:55:53.064Z,1002.76
2016-10-25T13:57:03.087Z,1002.73
2016-10-25T13:58:13.393Z,1002.76
2016-10-25T13:59:23.440Z,1002.82
2016-10-25T14:00:33.747Z,1002.8
2016-10-25T14:01:44.057Z,1002.81
2016-10-25T14:02:54.371Z,1002.84
2016-10-25T14:04:04.836Z,1002.87
2016-10-25T14:05:15.147Z,1002.88
2016-10-25T14:06:25.148Z,1002.87
2016-10-25T14:07:35.173Z,1002.89
2016-10-25T14:08:45.167Z,1002.88
2016-10-25T14:09:54.556Z,1002.93
2016-10-25T14:11:03.963Z,1002.92
2016-10-25T14:12:13.965Z,1002.93
2016-10-25T14:13:24.291Z,1002.97
2016-10-25T14:14:34.624Z,1002.98
2016-10-25T14:15:44.943Z,1002.98
2016-10-25T14:16:54.652Z,1003.05
2016-10-25T14:18:04.365Z,1002.99
2016-10-25T14:19:14.665Z,1002.96
2016-10-25T14:20:24.046Z,1002.95
2016-10-25T14:21:34.087Z,1002.98
2016-10-25T14:22:44.388Z,1002.96
2016-10-25T14:23:54.714Z,1002.94
2016-10-25T14:25:05.023Z,1002.98
2016-10-25T14:26:15.037Z,1002.98
2016-10-25T14:27:25.044Z,1002.96
2016-10-25T14:28:35.015Z,1003
2016-10-25T14:29:45.297Z,1002.99
2016-10-25T14:30:55.604Z,1002.98
2016-10-25T14:32:05.904Z,1003.04
2016-10-25T14:33:15.925Z,1003.05
2016-10-25T14:34:25.916Z,1003.03
2016-10-25T14:35:36.242Z,1003.05
2016-10-25T14:36:46.237Z,1003.06
2016-10-25T14:37:56.552Z,1003
2016-10-25T14:39:06.858Z,1003.04
2016-10-25T14:40:16.864Z,1003.03
2016-10-25T14:41:26.844Z,1003.06
2016-10-25T14:42:37.141Z,1003.06
2016-10-25T14:43:47.436Z,1003.04
2016-10-25T14:44:57.797Z,1003.13
2016-10-25T14:46:07.786Z,1003.06
2016-10-25T14:47:17.481Z,1003.1
2016-10-25T14:48:27.469Z,1003.06
2016-10-25T14:49:37.143Z,1003.12
2016-10-25T14:50:47.457Z,1003.15
2016-10-25T14:51:57.471Z,1003.22